createdAt,value
2019-04-11T00:02:24.741Z,82.81
2019-04-11T00:04:59.234Z,82.98
2019-04-11T00:07:32.102Z,83.14
2019-04-11T00:10:06.226Z,83.26
2019-04-11T00:12:38.851Z,83.37
2019-04-11T00:15:10.948Z,83.46
2019-04-11T00:17:43.878Z,83.52
2019-04-11T00:20:16.059Z,83.54
2019-04-11T00:22:48.024Z,83.60
2019-04-11T00:25:19.989Z,83.63
2019-04-11T00:27:53.058Z,83.64
2019-04-11T00:30:26.173Z,83.65
2019-04-11T00:32:58.611Z,83.71
2019-04-11T00:35:31.423Z,83.76
2019-04-11T00:38:03.559Z,83.81
2019-04-11T00:40:35.590Z,83.85
2019-04-11T00:43:07.641Z,83.92
2019-04-11T00:45:40.780Z,84.02
2019-04-11T00:48:13.293Z,84.22
2019-04-11T00:50:45.527Z,84.33
2019-04-11T00:53:18.913Z,84.40
2019-04-11T00:55:51.503Z,84.40
2019-04-11T00:58:25.567Z,84.34
2019-04-11T01:00:59.656Z,84.26
2019-04-11T01:03:32.218Z,84.27
2019-04-11T01:06:04.148Z,84.31
2019-04-11T01:08:36.065Z,84.44
2019-04-11T01:11:09.894Z,84.61
2019-04-11T01:13:50.176Z,84.70
2019-04-11T01:16:38.907Z,84.78
2019-04-11T01:19:11.562Z,84.75
2019-04-11T01:21:44.507Z,84.73
2019-04-11T01:24:17.730Z,84.67
2019-04-11T01:26:49.847Z,84.59
2019-04-11T01:29:22.993Z,84.48
2019-04-11T01:32:02.138Z,84.44
2019-04-11T01:34:34.989Z,84.28
2019-04-11T01:37:07.747Z,84.32
2019-04-11T01:39:57.256Z,84.40
2019-04-11T01:42:31.965Z,84.46
2019-04-11T01:45:05.329Z,84.55
2019-04-11T01:48:05.368Z,84.62
2019-04-11T01:50:37.396Z,84.58
2019-04-11T01:53:09.359Z,84.65
2019-04-11T01:55:41.393Z,84.67
2019-04-11T01:58:14.233Z,84.79
2019-04-11T02:01:08.365Z,84.95
2019-04-11T02:04:00.739Z,85.15
2019-04-11T02:06:34.017Z,85.35
2019-04-11T02:09:10.140Z,85.55
2019-04-11T02:11:42.162Z,85.71
2019-04-11T02:14:17.739Z,85.83
2019-04-11T02:16:47.809Z,85.92
2019-04-11T02:19:20.384Z,86.04
2019-04-11T02:21:54.504Z,86.14
2019-04-11T02:24:52.238Z,86.23
2019-04-11T02:27:27.401Z,86.34
2019-04-11T02:30:01.209Z,86.34
2019-04-11T02:32:37.008Z,86.28
2019-04-11T02:35:10.990Z,86.19
2019-04-11T02:37:47.590Z,86.10
2019-04-11T02:40:20.160Z,85.16
2019-04-11T02:42:52.598Z,84.44
2019-04-11T02:45:41.989Z,83.84
2019-04-11T02:47:59.381Z,83.51
2019-04-11T02:50:32.162Z,83.14
2019-04-11T02:53:04.993Z,82.81
2019-04-11T02:55:38.148Z,82.32
2019-04-11T02:58:10.596Z,82.06
2019-04-11T03:00:45.497Z,81.88
2019-04-11T03:03:20.967Z,81.78
2019-04-11T03:05:53.431Z,81.76
2019-04-11T03:08:28.320Z,82.02
2019-04-11T03:11:03.044Z,82.03
2019-04-11T03:13:35.946Z,82.03
2019-04-11T03:16:24.815Z,82.09
2019-04-11T03:18:59.391Z,81.90
2019-04-11T03:21:21.745Z,81.97
2019-04-11T03:23:51.440Z,82.08
2019-04-11T03:26:25.028Z,82.21
2019-04-11T03:28:58.330Z,82.26
2019-04-11T03:32:13.767Z,82.25
2019-04-11T03:35:03.139Z,82.04
2019-04-11T03:39:32.672Z,81.42
2019-04-11T03:42:07.989Z,81.51
2019-04-11T03:44:28.665Z,81.65
2019-04-11T03:47:12.714Z,81.80
2019-04-11T03:49:41.912Z,82.00
2019-04-11T03:52:08.193Z,82.22
2019-04-11T03:54:42.455Z,82.34
2019-04-11T03:57:15.720Z,82.38
2019-04-11T03:59:48.473Z,82.51
2019-04-11T04:02:22.352Z,82.37
2019-04-11T04:04:55.334Z,82.51
2019-04-11T04:07:27.817Z,82.63
2019-04-11T04:10:02.739Z,82.73
2019-04-11T04:12:37.764Z,82.81
2019-04-11T04:15:37.575Z,82.67
2019-04-11T04:18:16.557Z,82.58
2019-04-11T04:21:09.189Z,82.50
2019-04-11T04:23:47.049Z,82.31
2019-04-11T04:26:19.687Z,82.08
2019-04-11T04:28:53.427Z,81.97
2019-04-11T04:31:26.737Z,81.88
2019-04-11T04:33:59.627Z,81.92
2019-04-11T04:36:33.056Z,82.12
2019-04-11T04:39:06.562Z,82.14
2019-04-11T04:41:47.592Z,82.07
2019-04-11T04:44:19.036Z,82.07
2019-04-11T04:47:00.086Z,81.92
2019-04-11T04:49:25.274Z,81.75
2019-04-11T04:51:57.445Z,81.70
2019-04-11T04:54:30.848Z,81.72
2019-04-11T04:57:04.688Z,81.78
2019-04-11T04:59:38.380Z,81.75
2019-04-11T05:02:12.817Z,81.77
2019-04-11T05:04:45.926Z,81.68
2019-04-11T05:07:19.463Z,81.63
2019-04-11T05:09:51.906Z,81.48
2019-04-11T05:12:24.150Z,81.40
2019-04-11T05:14:56.198Z,81.17
2019-04-11T05:17:28.986Z,80.93
2019-04-11T05:20:03.014Z,80.81
2019-04-11T05:22:35.295Z,80.88
2019-04-11T05:25:08.412Z,80.86
2019-04-11T05:27:40.535Z,80.84
2019-04-11T05:30:12.703Z,80.80
2019-04-11T05:32:45.672Z,80.67
2019-04-11T05:35:18.511Z,80.50
2019-04-11T05:37:51.470Z,80.33
2019-04-11T05:40:23.978Z,80.35
2019-04-11T05:42:55.977Z,80.50
2019-04-11T05:45:29.794Z,80.57
2019-04-11T05:48:03.281Z,80.74
2019-04-11T05:50:38.202Z,80.92
2019-04-11T05:53:10.393Z,81.45
2019-04-11T05:55:45.443Z,82.09
2019-04-11T05:58:17.715Z,82.90
2019-04-11T06:01:01.236Z,83.54
2019-04-11T06:03:34.309Z,84.05
2019-04-11T06:06:31.919Z,84.56
2019-04-11T06:09:10.305Z,84.89
2019-04-11T06:11:55.780Z,85.26
2019-04-11T06:14:31.000Z,85.50
2019-04-11T06:17:07.288Z,85.71
2019-04-11T06:19:57.635Z,85.82
2019-04-11T06:22:29.820Z,85.86
2019-04-11T06:25:33.265Z,85.86
2019-04-11T06:28:30.829Z,85.88
2019-04-11T06:31:22.024Z,85.82
2019-04-11T06:34:01.470Z,85.71
2019-04-11T06:36:58.370Z,85.67
2019-04-11T06:39:45.115Z,85.53
2019-04-11T06:42:49.670Z,85.52
2019-04-11T06:45:40.081Z,85.46
2019-04-11T06:48:49.650Z,85.47
2019-04-11T06:51:34.272Z,85.57
2019-04-11T06:54:23.200Z,85.63
2019-04-11T06:56:55.529Z,85.59
2019-04-11T06:59:32.386Z,85.50
2019-04-11T07:02:16.406Z,85.35
2019-04-11T07:04:47.200Z,85.35
2019-04-11T07:07:20.542Z,85.25
2019-04-11T07:09:55.986Z,84.98
2019-04-11T07:12:55.617Z,84.82
2019-04-11T07:15:39.797Z,84.59
2019-04-11T07:18:31.215Z,84.37
2019-04-11T07:21:06.348Z,84.20
2019-04-11T07:23:57.480Z,84.12
2019-04-11T07:26:41.753Z,84.08
2019-04-11T07:29:33.726Z,84.01
2019-04-11T07:32:17.951Z,83.89
2019-04-11T07:35:08.646Z,83.51
2019-04-11T07:37:45.236Z,83.03
2019-04-11T07:40:54.684Z,82.84
2019-04-11T07:43:29.360Z,82.46
2019-04-11T07:46:21.941Z,81.92
2019-04-11T07:49:03.767Z,81.48
2019-04-11T07:51:38.612Z,81.14
2019-04-11T07:54:30.347Z,80.49
2019-04-11T07:57:28.166Z,79.89
2019-04-11T08:00:20.510Z,79.51
2019-04-11T08:03:10.516Z,79.26
2019-04-11T08:06:00.887Z,78.77
2019-04-11T08:09:10.258Z,78.63
2019-04-11T08:11:49.836Z,78.37
2019-04-11T08:14:48.873Z,78.14
2019-04-11T08:17:35.731Z,77.84
2019-04-11T08:20:19.397Z,77.30
2019-04-11T08:23:03.576Z,76.67
2019-04-11T08:25:50.321Z,76.47
2019-04-11T08:28:24.833Z,76.79
2019-04-11T08:31:19.389Z,76.89
2019-04-11T08:33:55.045Z,77.15
2019-04-11T08:36:38.006Z,77.35
2019-04-11T08:39:18.123Z,77.17
2019-04-11T08:42:12.843Z,77.16
2019-04-11T08:44:48.022Z,77.21
2019-04-11T08:47:22.422Z,76.88
2019-04-11T08:49:58.437Z,76.45
2019-04-11T08:52:40.400Z,75.92
2019-04-11T08:55:17.308Z,75.50
2019-04-11T08:57:56.139Z,75.20
2019-04-11T09:00:40.201Z,75.01
2019-04-11T09:03:37.787Z,74.65
2019-04-11T09:06:13.033Z,74.58
2019-04-11T09:09:02.991Z,74.68
2019-04-11T09:11:46.822Z,74.29
2019-04-11T09:14:36.555Z,73.64
2019-04-11T09:17:16.808Z,73.45
2019-04-11T09:20:07.653Z,72.54
2019-04-11T09:22:47.026Z,72.31
2019-04-11T09:25:37.046Z,71.41
2019-04-11T09:28:15.861Z,70.57
2019-04-11T09:31:17.049Z,70.33
2019-04-11T09:34:14.410Z,70.00
2019-04-11T09:36:58.382Z,68.66
2019-04-11T09:40:01.744Z,68.68
2019-04-11T09:42:48.873Z,69.32
2019-04-11T09:45:52.580Z,68.87
2019-04-11T09:49:04.402Z,68.41
2019-04-11T09:51:49.896Z,67.74
2019-04-11T09:54:28.177Z,66.85
2019-04-11T09:57:32.397Z,66.80
2019-04-11T10:00:24.283Z,66.41
2019-04-11T10:03:15.456Z,64.60
2019-04-11T10:05:56.784Z,64.59
2019-04-11T10:08:39.682Z,64.20
2019-04-11T10:11:30.367Z,62.99
2019-04-11T10:14:09.416Z,61.09
2019-04-11T10:17:00.242Z,59.12
2019-04-11T10:19:40.240Z,55.84
2019-04-11T10:22:49.458Z,50.63
2019-04-11T10:25:33.284Z,46.55
2019-04-11T10:28:22.516Z,40.21
2019-04-11T10:31:14.694Z,37.75
2019-04-11T10:34:06.058Z,36.30
2019-04-11T10:36:43.529Z,31.87
2019-04-11T10:39:33.398Z,31.54
2019-04-11T10:42:08.671Z,28.37
2019-04-11T10:44:51.644Z,28.37
2019-04-11T10:47:25.245Z,27.54
2019-04-11T10:50:19.592Z,28.82
2019-04-11T10:52:58.411Z,29.07
2019-04-11T10:55:58.590Z,28.76
2019-04-11T10:58:37.230Z,25.99
2019-04-11T11:01:26.781Z,25.90
2019-04-11T11:04:07.809Z,25.14
2019-04-11T11:06:39.975Z,24.63
2019-04-11T11:09:17.780Z,22.33
2019-04-11T11:12:08.784Z,21.83
2019-04-11T11:15:09.417Z,21.71
2019-04-11T11:18:46.375Z,22.82
2019-04-11T11:20:55.759Z,23.82
2019-04-11T11:23:43.267Z,22.94
2019-04-11T11:26:24.810Z,21.61
2019-04-11T11:29:22.265Z,23.10
2019-04-11T11:32:03.191Z,25.46
2019-04-11T11:34:42.660Z,23.73
2019-04-11T11:37:33.336Z,25.79
2019-04-11T11:40:44.713Z,25.48
2019-04-11T11:43:19.237Z,26.76
2019-04-11T11:46:19.641Z,29.22
2019-04-11T11:49:14.280Z,24.89
2019-04-11T11:52:11.109Z,24.89
2019-04-11T11:54:49.737Z,26.83
2019-04-11T11:57:29.082Z,25.79
2019-04-11T12:00:13.138Z,25.22
2019-04-11T12:02:55.464Z,25.85
2019-04-11T12:05:31.174Z,25.46
2019-04-11T12:08:22.301Z,25.82
2019-04-11T12:11:01.900Z,27.15
2019-04-11T12:13:51.598Z,27.95
2019-04-11T12:16:49.753Z,29.89
2019-04-11T12:19:26.902Z,30.58
2019-04-11T12:21:59.969Z,33.51
2019-04-11T12:24:36.504Z,34.71
2019-04-11T12:27:27.427Z,35.14
2019-04-11T12:30:20.842Z,36.62
2019-04-11T12:33:13.050Z,35.49
2019-04-11T12:36:10.217Z,35.28
2019-04-11T12:39:00.049Z,35.96
2019-04-11T12:41:49.879Z,36.76
2019-04-11T12:44:43.269Z,37.32
2019-04-11T12:47:38.310Z,38.27
2019-04-11T12:50:30.548Z,38.99
2019-04-11T12:53:04.698Z,39.20
2019-04-11T12:55:56.024Z,38.56
2019-04-11T12:58:58.876Z,38.69
2019-04-11T13:01:55.913Z,37.76
2019-04-11T13:04:30.131Z,37.27
2019-04-11T13:07:33.161Z,36.19
2019-04-11T13:10:30.787Z,35.44
2019-04-11T13:13:24.867Z,34.92
2019-04-11T13:16:15.709Z,34.99
2019-04-11T13:19:06.479Z,35.54
2019-04-11T13:21:57.494Z,35.69
2019-04-11T13:24:46.721Z,34.41
2019-04-11T13:27:24.298Z,36.02
2019-04-11T13:30:14.420Z,32.85
2019-04-11T13:33:11.597Z,33.01
2019-04-11T13:36:05.298Z,32.96
2019-04-11T13:38:41.835Z,33.01
2019-04-11T13:41:31.586Z,33.16
2019-04-11T13:44:21.852Z,33.17
2019-04-11T13:47:12.619Z,33.69
2019-04-11T13:49:56.331Z,33.27
2019-04-11T13:52:45.962Z,31.75
2019-04-11T13:55:25.782Z,30.95
2019-04-11T13:58:16.581Z,31.45
2019-04-11T14:00:52.545Z,31.27
2019-04-11T14:03:49.217Z,32.66
2019-04-11T14:06:33.329Z,33.74
2019-04-11T14:09:19.554Z,34.78
2019-04-11T14:11:56.298Z,35.06
2019-04-11T14:14:30.156Z,34.52
2019-04-11T14:17:13.140Z,35.01
2019-04-11T14:20:08.843Z,35.03
2019-04-11T14:23:02.333Z,34.44
2019-04-11T14:25:56.284Z,34.33
2019-04-11T14:28:32.651Z,34.39
2019-04-11T14:31:16.364Z,35.09
2019-04-11T14:33:51.684Z,35.36
2019-04-11T14:36:41.481Z,36.77
2019-04-11T14:39:15.544Z,38.41
2019-04-11T14:42:06.795Z,39.46
2019-04-11T14:44:39.538Z,39.30
2019-04-11T14:47:48.483Z,42.52
2019-04-11T14:50:20.944Z,44.36
2019-04-11T14:53:17.481Z,44.72
2019-04-11T14:55:51.902Z,44.30
2019-04-11T14:58:42.808Z,44.39
2019-04-11T15:01:16.410Z,43.41
2019-04-11T15:04:19.972Z,43.48
2019-04-11T15:06:52.901Z,43.25
2019-04-11T15:09:40.177Z,42.63
2019-04-11T15:12:17.552Z,41.35
2019-04-11T15:15:22.295Z,42.42
2019-04-11T15:17:58.047Z,42.46
2019-04-11T15:20:55.379Z,43.36
2019-04-11T15:23:29.826Z,44.33
2019-04-11T15:26:23.610Z,45.06
2019-04-11T15:29:20.461Z,45.24
2019-04-11T15:32:10.227Z,45.12
2019-04-11T15:34:52.890Z,46.11
2019-04-11T15:37:43.748Z,46.09
2019-04-11T15:40:22.462Z,46.48
2019-04-11T15:43:22.231Z,46.65
2019-04-11T15:46:11.892Z,46.01
2019-04-11T15:49:02.662Z,47.06
2019-04-11T15:51:37.749Z,46.49
2019-04-11T15:54:17.508Z,47.07
2019-04-11T15:56:55.331Z,47.56
2019-04-11T15:59:54.169Z,47.57
2019-04-11T16:02:53.611Z,47.64
2019-04-11T16:05:50.732Z,47.79
2019-04-11T16:08:45.115Z,47.20
2019-04-11T16:11:25.453Z,47.42
2019-04-11T16:14:09.450Z,48.69
2019-04-11T16:16:59.095Z,48.20
2019-04-11T16:20:01.743Z,48.73
2019-04-11T16:22:56.075Z,48.62
2019-04-11T16:25:29.271Z,47.65
2019-04-11T16:28:19.402Z,47.68
2019-04-11T16:30:57.780Z,47.97
2019-04-11T16:33:48.597Z,48.23
2019-04-11T16:36:26.974Z,48.40
2019-04-11T16:39:32.985Z,48.33
2019-04-11T16:42:09.840Z,48.72
2019-04-11T16:45:03.504Z,48.79
2019-04-11T16:47:45.765Z,48.36
2019-04-11T16:50:17.723Z,48.18
2019-04-11T16:52:49.722Z,48.33
2019-04-11T16:55:21.635Z,48.40
2019-04-11T16:57:53.658Z,47.92
2019-04-11T17:00:25.710Z,47.85
2019-04-11T17:02:57.818Z,47.82
2019-04-11T17:05:29.813Z,47.85
2019-04-11T17:08:33.885Z,47.07
2019-04-11T17:11:10.659Z,47.62
2019-04-11T17:13:42.942Z,48.34
2019-04-11T17:16:17.086Z,47.39
2019-04-11T17:18:49.073Z,47.48
2019-04-11T17:21:23.108Z,47.27
2019-04-11T17:23:54.684Z,47.89
2019-04-11T17:26:26.603Z,47.34
2019-04-11T17:28:58.589Z,47.45
2019-04-11T17:31:30.510Z,47.48
2019-04-11T17:34:05.441Z,47.25
2019-04-11T17:36:36.238Z,48.74
2019-04-11T17:39:09.077Z,48.77
2019-04-11T17:41:42.098Z,49.48
2019-04-11T17:44:16.091Z,49.50
2019-04-11T17:46:48.092Z,49.81
2019-04-11T17:49:20.101Z,50.01
2019-04-11T17:51:56.008Z,50.92
2019-04-11T17:54:25.867Z,51.41
2019-04-11T17:56:59.112Z,51.76
2019-04-11T17:59:31.530Z,51.85
2019-04-11T18:02:05.129Z,52.33
2019-04-11T18:04:37.103Z,52.62
2019-04-11T18:07:09.105Z,52.99
2019-04-11T18:09:41.227Z,53.18
2019-04-11T18:12:13.591Z,53.56
2019-04-11T18:14:45.620Z,54.28
2019-04-11T18:17:17.670Z,54.33
2019-04-11T18:19:51.024Z,54.65
2019-04-11T18:22:23.189Z,55.25
2019-04-11T18:24:55.153Z,56.06
2019-04-11T18:27:27.082Z,56.23
2019-04-11T18:29:59.082Z,56.25
2019-04-11T18:32:32.374Z,56.50
2019-04-11T18:35:04.658Z,56.69
2019-04-11T18:37:38.382Z,57.10
2019-04-11T18:40:10.854Z,57.30
2019-04-11T18:42:42.997Z,56.79
2019-04-11T18:45:15.941Z,57.44
2019-04-11T18:47:47.948Z,58.16
2019-04-11T18:50:23.029Z,58.21
2019-04-11T18:52:59.224Z,57.98
2019-04-11T18:55:29.892Z,58.27
2019-04-11T18:58:04.636Z,58.14
2019-04-11T19:00:35.807Z,58.29
2019-04-11T19:03:10.399Z,57.98
2019-04-11T19:05:43.615Z,58.82
2019-04-11T19:08:15.715Z,57.91
2019-04-11T19:10:47.835Z,57.61
2019-04-11T19:13:19.902Z,57.80
2019-04-11T19:15:51.847Z,57.99
2019-04-11T19:18:23.949Z,58.67
2019-04-11T19:20:55.924Z,60.24
2019-04-11T19:23:28.657Z,61.57
2019-04-11T19:26:00.688Z,62.27
2019-04-11T19:28:32.684Z,62.90
2019-04-11T19:31:04.712Z,63.53
2019-04-11T19:33:36.711Z,63.74
2019-04-11T19:36:10.131Z,64.54
2019-04-11T19:38:43.308Z,65.27
2019-04-11T19:41:17.956Z,65.79
2019-04-11T19:43:49.902Z,65.89
2019-04-11T19:46:21.980Z,66.06
2019-04-11T19:48:57.092Z,66.24
2019-04-11T19:51:29.494Z,66.56
2019-04-11T19:54:03.377Z,67.01
2019-04-11T19:56:40.738Z,67.60
2019-04-11T19:59:12.838Z,67.95
2019-04-11T20:01:44.863Z,68.00
2019-04-11T20:04:16.816Z,67.90
2019-04-11T20:06:48.819Z,68.06
2019-04-11T20:09:20.880Z,67.83
2019-04-11T20:11:54.725Z,67.82
2019-04-11T20:14:27.316Z,67.57
2019-04-11T20:17:01.588Z,67.59
2019-04-11T20:19:33.624Z,67.74
2019-04-11T20:22:08.357Z,67.84
2019-04-11T20:24:40.339Z,68.02
2019-04-11T20:27:12.280Z,68.13
2019-04-11T20:29:44.299Z,68.20
2019-04-11T20:32:16.276Z,68.35
2019-04-11T20:34:48.765Z,68.50
2019-04-11T20:37:20.749Z,68.76
2019-04-11T20:39:52.935Z,69.37
2019-04-11T20:42:26.341Z,69.21
2019-04-11T20:44:59.309Z,69.40
2019-04-11T20:47:33.243Z,69.53
2019-04-11T20:50:07.547Z,70.11
2019-04-11T20:52:41.563Z,70.68
2019-04-11T20:55:13.864Z,70.94
2019-04-11T20:57:47.344Z,71.10
2019-04-11T21:00:20.064Z,71.20
2019-04-11T21:02:52.087Z,71.16
2019-04-11T21:05:24.099Z,71.60
2019-04-11T21:08:02.669Z,72.68
2019-04-11T21:10:34.130Z,73.31
2019-04-11T21:13:07.707Z,73.44
2019-04-11T21:15:41.135Z,73.91
2019-04-11T21:18:13.423Z,74.26
2019-04-11T21:20:47.069Z,74.53
2019-04-11T21:23:24.583Z,74.58
2019-04-11T21:25:53.146Z,74.48
2019-04-11T21:28:25.230Z,74.38
2019-04-11T21:30:59.854Z,74.30
2019-04-11T21:33:34.013Z,74.38
2019-04-11T21:36:05.471Z,74.98
2019-04-11T21:38:37.620Z,75.48
2019-04-11T21:41:09.693Z,75.87
2019-04-11T21:43:41.724Z,76.12
2019-04-11T21:46:15.391Z,76.17
2019-04-11T21:48:47.549Z,76.39
2019-04-11T21:51:19.552Z,76.37
2019-04-11T21:53:51.529Z,76.33
2019-04-11T21:56:23.547Z,76.32
2019-04-11T21:58:55.512Z,76.58
2019-04-11T22:01:27.983Z,76.97
2019-04-11T22:04:00.940Z,77.19
2019-04-11T22:06:33.027Z,77.40
2019-04-11T22:09:06.609Z,77.61
2019-04-11T22:11:39.975Z,77.71
2019-04-11T22:14:12.346Z,77.93
2019-04-11T22:16:45.281Z,78.27
2019-04-11T22:19:17.395Z,78.48
2019-04-11T22:21:49.522Z,78.58
2019-04-11T22:24:23.205Z,78.64
2019-04-11T22:26:55.279Z,78.62
2019-04-11T22:29:27.226Z,78.59
2019-04-11T22:31:59.344Z,78.76
2019-04-11T22:34:43.419Z,78.93
2019-04-11T22:37:15.401Z,78.93
2019-04-11T22:39:47.400Z,78.93
2019-04-11T22:42:19.508Z,78.89
2019-04-11T22:44:51.491Z,79.05
2019-04-11T22:47:23.872Z,79.51
2019-04-11T22:49:55.930Z,79.78
2019-04-11T22:52:27.993Z,79.81
2019-04-11T22:55:00.818Z,79.80
2019-04-11T22:57:32.903Z,79.74
2019-04-11T23:00:06.826Z,79.71
2019-04-11T23:03:08.238Z,79.72
2019-04-11T23:05:46.762Z,79.84
2019-04-11T23:08:19.347Z,80.12
2019-04-11T23:10:52.845Z,80.47
2019-04-11T23:13:24.938Z,80.75
2019-04-11T23:15:57.312Z,80.97
2019-04-11T23:18:29.275Z,81.30
2019-04-11T23:21:01.307Z,81.56
2019-04-11T23:23:33.278Z,81.74
2019-04-11T23:26:05.320Z,81.81
2019-04-11T23:28:37.260Z,81.94
2019-04-11T23:31:12.256Z,82.01
2019-04-11T23:33:44.182Z,82.02
2019-04-11T23:36:16.247Z,81.96
2019-04-11T23:38:48.171Z,81.92
2019-04-11T23:41:21.432Z,81.89
2019-04-11T23:43:53.485Z,81.93
2019-04-11T23:46:25.424Z,81.87
2019-04-11T23:48:57.582Z,81.92
2019-04-11T23:51:29.549Z,81.99
2019-04-11T23:54:02.579Z,81.99
2019-04-11T23:56:34.577Z,81.97
2019-04-11T23:59:06.580Z,81.99
